Time;durP1;ratioP1;P1;durP2;ratioP2;P2;SDS_P1;SDS_P2;PMS_P1;PMS_P2;Temp;Humidity;BMP_temperature;BMP_pressure;BME280_temperature;BME280_humidity;BME280_pressure;Samples;Min_cycle;Max_cycle;Signal;HPM_P1;HPM_P2
2022/09/13 00:00:53;;;;;;;26.03;17.33;;;;;;;;;;5069640;28;20055;-62
2022/09/13 00:03:20;;;;;;;33.33;20.67;;;;;;;;;;5069355;28;20552;-62
2022/09/13 00:05:46;;;;;;;28.90;17.33;;;;;;;;;;5069550;28;20540;-62
2022/09/13 00:08:13;;;;;;;28.87;18.13;;;;;;;;;;5069479;28;20052;-62
2022/09/13 00:10:40;;;;;;;28.53;17.53;;;;;;;;;;5068595;28;20148;-62
2022/09/13 00:13:07;;;;;;;77.30;30.13;;;;;;;;;;5068826;28;20110;-62
2022/09/13 00:15:33;;;;;;;36.07;19.70;;;;;;;;;;5069215;28;20044;-62
2022/09/13 00:17:59;;;;;;;138.23;42.07;;;;;;;;;;5068898;28;20049;-62
2022/09/13 00:20:25;;;;;;;31.33;19.90;;;;;;;;;;5068925;28;20531;-62
2022/09/13 00:22:52;;;;;;;43.23;22.63;;;;;;;;;;5069292;28;20051;-62
2022/09/13 00:25:18;;;;;;;43.20;23.97;;;;;;;;;;5069213;28;20055;-62
2022/09/13 00:27:44;;;;;;;31.77;19.67;;;;;;;;;;5069051;28;20497;-62
2022/09/13 00:30:11;;;;;;;60.87;26.43;;;;;;;;;;5069109;28;20117;-62
2022/09/13 00:32:37;;;;;;;52.23;25.13;;;;;;;;;;5068322;28;20045;-61
2022/09/13 00:35:04;;;;;;;73.53;30.43;;;;;;;;;;5069224;28;20036;-62
2022/09/13 00:37:32;;;;;;;44.63;24.30;;;;;;;;;;5068361;28;20044;-61
2022/09/13 00:39:58;;;;;;;34.03;20.97;;;;;;;;;;5068767;28;20055;-62
2022/09/13 00:42:25;;;;;;;40.80;23.20;;;;;;;;;;5068924;28;20041;-62
2022/09/13 00:44:56;;;;;;;52.80;27.20;;;;;;;;;;5069100;28;20048;-62
2022/09/13 00:47:24;;;;;;;43.40;24.97;;;;;;;;;;5068916;28;20127;-62
2022/09/13 00:49:52;;;;;;;40.30;24.53;;;;;;;;;;5068731;28;20130;-61
2022/09/13 00:52:20;;;;;;;49.93;25.60;;;;;;;;;;5068626;28;20044;-61
2022/09/13 00:54:50;;;;;;;53.17;28.53;;;;;;;;;;5068225;28;20426;-62
2022/09/13 00:57:16;;;;;;;49.70;26.43;;;;;;;;;;5068430;28;20040;-62
2022/09/13 00:59:44;;;;;;;86.10;36.50;;;;;;;;;;5068729;28;20045;-62
2022/09/13 01:02:10;;;;;;;125.83;42.33;;;;;;;;;;5068374;28;20056;-61
2022/09/13 01:04:36;;;;;;;129.33;43.80;;;;;;;;;;5068745;28;20473;-61
2022/09/13 01:07:04;;;;;;;144.53;45.43;;;;;;;;;;5068384;28;20098;-61
2022/09/13 01:09:32;;;;;;;54.50;27.17;;;;;;;;;;5068005;28;20056;-61
2022/09/13 01:12:03;;;;;;;80.67;31.97;;;;;;;;;;5068491;28;20048;-61
2022/09/13 01:14:30;;;;;;;51.53;25.97;;;;;;;;;;5068124;28;20044;-61
2022/09/13 01:16:56;;;;;;;139.23;43.07;;;;;;;;;;5068271;28;20509;-61
2022/09/13 01:19:22;;;;;;;100.57;38.43;;;;;;;;;;5067853;28;20045;-61
2022/09/13 01:21:51;;;;;;;59.73;31.00;;;;;;;;;;5068601;28;20049;-61
2022/09/13 01:24:17;;;;;;;60.57;29.93;;;;;;;;;;5068545;28;20040;-61
2022/09/13 01:26:58;;;;;;;94.37;38.30;;;;;;;;;;5068136;28;20041;-61
2022/09/13 01:29:24;;;;;;;183.37;53.80;;;;;;;;;;5068312;28;20045;-61
2022/09/13 01:31:51;;;;;;;69.70;33.63;;;;;;;;;;5068306;28;20052;-61
2022/09/13 01:34:36;;;;;;;56.80;30.03;;;;;;;;;;5068409;28;20175;-61
2022/09/13 01:37:02;;;;;;;62.83;32.83;;;;;;;;;;5067988;28;20036;-62
2022/09/13 01:39:28;;;;;;;76.50;36.63;;;;;;;;;;5068144;28;20075;-61
2022/09/13 01:41:54;;;;;;;81.60;37.47;;;;;;;;;;5067944;28;20442;-61
2022/09/13 01:44:29;;;;;;;66.83;35.77;;;;;;;;;;5068365;28;20407;-61
2022/09/13 01:47:03;;;;;;;85.30;39.97;;;;;;;;;;5067523;28;20084;-61
2022/09/13 01:49:29;;;;;;;94.47;39.10;;;;;;;;;;5068132;28;20106;-61
2022/09/13 01:52:18;;;;;;;70.33;34.57;;;;;;;;;;5067820;28;20052;-61
2022/09/13 01:55:06;;;;;;;95.20;41.77;;;;;;;;;;5030560;28;20056;-61
2022/09/13 01:57:34;;;;;;;111.10;42.73;;;;;;;;;;5067213;28;20044;-61
2022/09/13 02:00:04;;;;;;;67.73;35.53;;;;;;;;;;5068117;28;20135;-61
2022/09/13 02:02:35;;;;;;;72.70;37.83;;;;;;;;;;5068013;28;20052;-61
2022/09/13 02:05:07;;;;;;;74.43;39.97;;;;;;;;;;5068178;28;20048;-61
2022/09/13 02:07:40;;;;;;;87.23;41.50;;;;;;;;;;5067887;28;20036;-61
2022/09/13 02:10:09;;;;;;;96.38;46.25;;;;;;;;;;5067736;28;20057;-61
2022/09/13 02:12:36;;;;;;;82.07;41.00;;;;;;;;;;5067982;28;20063;-61
2022/09/13 02:15:02;;;;;;;95.00;44.77;;;;;;;;;;5067800;28;20047;-61
2022/09/13 02:17:29;;;;;;;84.40;42.90;;;;;;;;;;5067571;28;20040;-61
2022/09/13 02:20:05;;;;;;;101.40;44.23;;;;;;;;;;5068804;28;20451;-61
2022/09/13 02:22:33;;;;;;;97.67;47.70;;;;;;;;;;5051000;28;20049;-61
2022/09/13 02:25:02;;;;;;;100.13;47.37;;;;;;;;;;5051406;28;20045;-61
2022/09/13 02:27:31;;;;;;;104.57;49.53;;;;;;;;;;5051254;28;20049;-61
2022/09/13 02:30:00;;;;;;;84.50;44.63;;;;;;;;;;5057132;28;20041;-61
2022/09/13 02:32:26;;;;;;;106.67;47.87;;;;;;;;;;5071021;28;20418;-61
2022/09/13 02:35:00;;;;;;;109.83;49.23;;;;;;;;;;5070960;28;20045;-62
2022/09/13 02:37:29;;;;;;;96.30;45.57;;;;;;;;;;5071183;28;20051;-61
2022/09/13 02:39:59;;;;;;;93.27;45.43;;;;;;;;;;5070836;28;20513;-61
2022/09/13 02:42:37;;;;;;;90.97;45.03;;;;;;;;;;5071234;28;20057;-61
2022/09/13 02:45:05;;;;;;;86.47;43.63;;;;;;;;;;5071302;28;20055;-61
2022/09/13 02:47:44;;;;;;;90.03;44.07;;;;;;;;;;5070938;28;20059;-61
2022/09/13 02:50:29;;;;;;;82.90;43.03;;;;;;;;;;5070265;28;20056;-62
2022/09/13 02:53:02;;;;;;;87.67;43.60;;;;;;;;;;5071090;28;20098;-61
2022/09/13 02:55:43;;;;;;;89.45;44.00;;;;;;;;;;5070861;28;20224;-62
2022/09/13 02:58:09;;;;;;;107.00;46.83;;;;;;;;;;5070406;28;20155;-61
2022/09/13 03:00:35;;;;;;;84.13;41.17;;;;;;;;;;5070081;28;20139;-62
2022/09/13 03:03:03;;;;;;;96.90;45.27;;;;;;;;;;5070822;28;20055;-61
2022/09/13 03:05:30;;;;;;;96.47;44.80;;;;;;;;;;5071074;28;20394;-62
2022/09/13 03:07:56;;;;;;;79.67;39.90;;;;;;;;;;5070779;28;20051;-62
2022/09/13 03:10:22;;;;;;;66.23;37.50;;;;;;;;;;5070174;28;20049;-61
2022/09/13 03:12:49;;;;;;;70.23;37.13;;;;;;;;;;5070457;28;20487;-61
2022/09/13 03:15:34;;;;;;;65.53;36.93;;;;;;;;;;5070645;28;20087;-61
2022/09/13 03:18:00;;;;;;;71.07;37.03;;;;;;;;;;5070542;28;20048;-61
2022/09/13 03:20:35;;;;;;;67.07;38.63;;;;;;;;;;5069563;28;20506;-61
2022/09/13 03:23:20;;;;;;;62.17;35.60;;;;;;;;;;5070236;28;20047;-62
2022/09/13 03:25:49;;;;;;;68.20;38.60;;;;;;;;;;5070161;28;20048;-61
2022/09/13 03:28:34;;;;;;;67.57;37.10;;;;;;;;;;5070110;28;20044;-61
2022/09/13 03:31:06;;;;;;;102.40;46.27;;;;;;;;;;5069612;28;20567;-62
2022/09/13 03:33:42;;;;;;;108.87;48.70;;;;;;;;;;5069178;28;20049;-62
2022/09/13 03:36:12;;;;;;;82.50;42.63;;;;;;;;;;5069898;28;20425;-61
2022/09/13 03:38:44;;;;;;;88.87;44.17;;;;;;;;;;5070151;28;20044;-62
2022/09/13 03:41:13;;;;;;;109.97;48.73;;;;;;;;;;5069854;28;20190;-61
2022/09/13 03:44:02;;;;;;;86.30;43.20;;;;;;;;;;5069925;28;20406;-61
2022/09/13 03:46:30;;;;;;;108.63;48.70;;;;;;;;;;5069639;28;20052;-61
2022/09/13 03:48:57;;;;;;;81.43;44.47;;;;;;;;;;5070050;28;20040;-61
2022/09/13 03:51:24;;;;;;;85.10;45.67;;;;;;;;;;5069289;28;20048;-61
2022/09/13 03:53:55;;;;;;;113.87;50.33;;;;;;;;;;5070024;28;20086;-61
2022/09/13 03:56:21;;;;;;;104.83;49.33;;;;;;;;;;5049916;28;20053;-61
2022/09/13 03:58:48;;;;;;;102.80;47.33;;;;;;;;;;5049178;28;20045;-61
2022/09/13 04:01:16;;;;;;;154.80;58.00;;;;;;;;;;5065716;28;20040;-61
2022/09/13 04:03:42;;;;;;;149.47;56.37;;;;;;;;;;5069144;28;20044;-61
2022/09/13 04:06:09;;;;;;;110.57;50.80;;;;;;;;;;5069583;28;20044;-61
2022/09/13 04:08:35;;;;;;;95.80;46.03;;;;;;;;;;5069428;28;20123;-61
2022/09/13 04:11:01;;;;;;;147.00;58.00;;;;;;;;;;5069352;28;20056;-61
2022/09/13 04:13:27;;;;;;;91.47;44.83;;;;;;;;;;5068945;28;20184;-61
2022/09/13 04:15:53;;;;;;;92.10;46.67;;;;;;;;;;5068596;28;20086;-62
2022/09/13 04:18:19;;;;;;;84.93;45.33;;;;;;;;;;5069478;28;20072;-61
2022/09/13 04:20:52;;;;;;;94.30;47.53;;;;;;;;;;5069102;28;20055;-61
2022/09/13 04:23:19;;;;;;;115.57;50.13;;;;;;;;;;5069361;28;20095;-61
2022/09/13 04:25:45;;;;;;;132.83;54.23;;;;;;;;;;5068545;28;20131;-61
2022/09/13 04:28:11;;;;;;;94.70;47.07;;;;;;;;;;5069273;28;20044;-61
2022/09/13 04:30:37;;;;;;;112.57;49.40;;;;;;;;;;5069612;28;20041;-61
2022/09/13 04:33:03;;;;;;;93.17;46.30;;;;;;;;;;5069288;28;20052;-61
2022/09/13 04:35:29;;;;;;;162.17;60.10;;;;;;;;;;5069146;28;20048;-61
2022/09/13 04:37:57;;;;;;;95.67;48.13;;;;;;;;;;5068930;28;20136;-61
2022/09/13 04:40:23;;;;;;;102.53;48.23;;;;;;;;;;5068653;28;20056;-62
2022/09/13 04:42:49;;;;;;;107.83;50.57;;;;;;;;;;5068209;28;20052;-61
2022/09/13 04:45:15;;;;;;;106.73;48.57;;;;;;;;;;5068944;28;20469;-61
2022/09/13 04:47:41;;;;;;;109.17;50.07;;;;;;;;;;5068537;28;20849;-61
2022/09/13 04:50:08;;;;;;;122.97;53.47;;;;;;;;;;5068601;28;20052;-61
2022/09/13 04:52:34;;;;;;;99.53;49.47;;;;;;;;;;5068855;28;20052;-61
2022/09/13 04:55:01;;;;;;;93.13;47.23;;;;;;;;;;5068449;28;20071;-61
2022/09/13 04:57:28;;;;;;;103.13;49.60;;;;;;;;;;5068178;28;20060;-62
2022/09/13 04:59:54;;;;;;;85.50;46.30;;;;;;;;;;5068704;28;20049;-61
2022/09/13 05:02:20;;;;;;;146.27;60.53;;;;;;;;;;5068253;28;20052;-61
2022/09/13 05:04:46;;;;;;;159.50;60.80;;;;;;;;;;5068215;28;20044;-61
2022/09/13 05:07:12;;;;;;;92.77;49.73;;;;;;;;;;5068508;28;20532;-61
2022/09/13 05:09:38;;;;;;;154.20;60.73;;;;;;;;;;5068515;28;20056;-61
2022/09/13 05:12:04;;;;;;;165.20;60.30;;;;;;;;;;5068616;28;20048;-61
2022/09/13 05:14:30;;;;;;;146.03;58.30;;;;;;;;;;5065745;28;20044;-62
2022/09/13 05:16:56;;;;;;;118.73;52.47;;;;;;;;;;5067272;28;20271;-61
2022/09/13 05:19:22;;;;;;;95.37;45.40;;;;;;;;;;5064334;28;20037;-61
2022/09/13 05:21:48;;;;;;;123.93;52.70;;;;;;;;;;5068151;28;20044;-61
2022/09/13 05:24:14;;;;;;;73.13;39.30;;;;;;;;;;5067919;28;20040;-61
2022/09/13 05:26:40;;;;;;;80.27;40.63;;;;;;;;;;5067230;28;20055;-61
2022/09/13 05:29:06;;;;;;;68.07;34.93;;;;;;;;;;5066271;28;20045;-61
2022/09/13 05:31:34;;;;;;;136.93;50.57;;;;;;;;;;5067036;28;20059;-61
2022/09/13 05:34:10;;;;;;;74.43;35.87;;;;;;;;;;5067626;28;20042;-61
2022/09/13 05:36:37;;;;;;;76.83;37.20;;;;;;;;;;5067032;28;20036;-61
2022/09/13 05:39:03;;;;;;;140.27;50.10;;;;;;;;;;5067476;28;20077;-62
2022/09/13 05:41:30;;;;;;;54.40;27.43;;;;;;;;;;5065988;28;20048;-61
2022/09/13 05:43:55;;;;;;;82.97;34.67;;;;;;;;;;5066925;28;20482;-61
2022/09/13 05:46:22;;;;;;;45.80;24.90;;;;;;;;;;5067735;28;20048;-61
2022/09/13 05:48:48;;;;;;;44.13;25.20;;;;;;;;;;5066225;28;20101;-62
2022/09/13 05:51:16;;;;;;;48.30;26.30;;;;;;;;;;5066143;28;20040;-61
2022/09/13 05:53:43;;;;;;;64.23;27.27;;;;;;;;;;5066213;28;20044;-61
2022/09/13 05:56:10;;;;;;;86.23;31.67;;;;;;;;;;5070049;28;20035;-61
2022/09/13 05:58:40;;;;;;;41.93;18.73;;;;;;;;;;5071818;28;20623;-61
2022/09/13 06:01:06;;;;;;;46.73;20.83;;;;;;;;;;5071199;28;20048;-61
2022/09/13 06:03:33;;;;;;;37.07;18.97;;;;;;;;;;5070054;28;20041;-61
2022/09/13 06:05:59;;;;;;;17.17;12.13;;;;;;;;;;5071619;28;20051;-63
2022/09/13 06:08:26;;;;;;;30.90;16.17;;;;;;;;;;5071440;28;20033;-62
2022/09/13 06:10:56;;;;;;;31.37;15.67;;;;;;;;;;5071454;28;20056;-62
2022/09/13 06:13:22;;;;;;;21.40;11.90;;;;;;;;;;5070861;28;20391;-62
2022/09/13 06:15:48;;;;;;;28.33;13.27;;;;;;;;;;5071194;28;20056;-62
2022/09/13 06:18:14;;;;;;;21.27;10.77;;;;;;;;;;5070332;28;20040;-62
2022/09/13 06:20:40;;;;;;;16.27;9.17;;;;;;;;;;5070826;28;20071;-62
2022/09/13 06:23:06;;;;;;;23.27;12.17;;;;;;;;;;5069847;28;20406;-62
2022/09/13 06:25:32;;;;;;;26.27;12.33;;;;;;;;;;5071404;28;20040;-62
2022/09/13 06:27:58;;;;;;;23.23;10.80;;;;;;;;;;5070802;28;20041;-62
2022/09/13 06:30:24;;;;;;;16.13;9.13;;;;;;;;;;5071104;28;20976;-62
2022/09/13 06:32:50;;;;;;;21.57;9.13;;;;;;;;;;5071077;28;20040;-62
2022/09/13 06:35:16;;;;;;;9.40;6.10;;;;;;;;;;5069963;28;20044;-62
2022/09/13 06:37:43;;;;;;;12.73;5.60;;;;;;;;;;5070496;28;20056;-63
2022/09/13 06:40:09;;;;;;;9.93;6.90;;;;;;;;;;5071153;28;20045;-62
2022/09/13 06:42:36;;;;;;;9.97;5.07;;;;;;;;;;5071086;28;20045;-63
2022/09/13 06:45:03;;;;;;;11.00;4.50;;;;;;;;;;5070735;28;20048;-63
2022/09/13 06:47:29;;;;;;;11.30;7.17;;;;;;;;;;5071174;28;20098;-63
2022/09/13 06:49:55;;;;;;;13.00;5.00;;;;;;;;;;5070541;28;20045;-63
2022/09/13 06:52:21;;;;;;;12.53;4.90;;;;;;;;;;5070244;28;20047;-63
2022/09/13 06:54:47;;;;;;;9.73;5.13;;;;;;;;;;5070490;28;20088;-63
2022/09/13 06:57:13;;;;;;;12.10;6.23;;;;;;;;;;5070614;28;20655;-63
2022/09/13 06:59:39;;;;;;;12.57;6.03;;;;;;;;;;5070333;28;20110;-63
2022/09/13 07:02:05;;;;;;;10.57;5.07;;;;;;;;;;5069833;28;20048;-63
2022/09/13 07:04:31;;;;;;;10.30;5.40;;;;;;;;;;5070544;28;20419;-63
2022/09/13 07:06:58;;;;;;;16.93;5.97;;;;;;;;;;5069926;28;20174;-63
2022/09/13 07:09:24;;;;;;;11.63;6.97;;;;;;;;;;5070320;28;20535;-63
2022/09/13 07:11:51;;;;;;;8.07;3.40;;;;;;;;;;5069622;28;20428;-63
2022/09/13 07:14:19;;;;;;;7.03;4.43;;;;;;;;;;5070242;28;20040;-63
2022/09/13 07:16:45;;;;;;;10.70;4.10;;;;;;;;;;5103308;28;20048;-63
2022/09/13 07:19:19;;;;;;;13.67;6.17;;;;;;;;;;5070274;28;20056;-63
2022/09/13 07:21:45;;;;;;;11.97;5.23;;;;;;;;;;5070041;28;20080;-63
2022/09/13 07:24:11;;;;;;;12.77;6.90;;;;;;;;;;5069867;28;20102;-64
2022/09/13 07:26:38;;;;;;;9.33;4.67;;;;;;;;;;5069445;28;20487;-63
2022/09/13 07:29:05;;;;;;;16.30;5.97;;;;;;;;;;5069267;28;20045;-63
2022/09/13 07:31:39;;;;;;;10.97;4.47;;;;;;;;;;5068988;28;20522;-63
2022/09/13 07:34:06;;;;;;;13.80;4.90;;;;;;;;;;5070135;28;20135;-64
2022/09/13 07:36:34;;;;;;;10.63;4.60;;;;;;;;;;5069562;28;20047;-64
2022/09/13 07:39:00;;;;;;;10.40;4.90;;;;;;;;;;5069739;28;20051;-64
2022/09/13 07:41:27;;;;;;;10.27;4.80;;;;;;;;;;5069778;28;20044;-64
2022/09/13 07:43:53;;;;;;;10.07;4.27;;;;;;;;;;5069800;28;20040;-64
2022/09/13 07:46:26;;;;;;;13.10;5.77;;;;;;;;;;5069555;28;20072;-64
2022/09/13 07:48:53;;;;;;;12.63;4.55;;;;;;;;;;5069547;28;20106;-64
2022/09/13 07:51:20;;;;;;;11.10;5.07;;;;;;;;;;5067887;28;20049;-64
2022/09/13 07:53:47;;;;;;;8.87;4.23;;;;;;;;;;5069504;28;20048;-64
2022/09/13 07:56:15;;;;;;;9.33;4.17;;;;;;;;;;5069235;28;20406;-64
2022/09/13 07:58:42;;;;;;;13.40;4.30;;;;;;;;;;5067864;28;20071;-62
2022/09/13 08:01:28;;;;;;;5.90;3.50;;;;;;;;;;5068977;28;20040;-63
2022/09/13 08:03:55;;;;;;;13.20;4.10;;;;;;;;;;5069131;28;20114;-63
2022/09/13 08:06:22;;;;;;;10.20;5.10;;;;;;;;;;5068556;28;20047;-63
2022/09/13 08:08:48;;;;;;;6.20;3.77;;;;;;;;;;5065205;28;20449;-63
2022/09/13 08:11:17;;;;;;;7.77;4.20;;;;;;;;;;5067610;28;20518;-63
2022/09/13 08:13:43;;;;;;;11.90;5.63;;;;;;;;;;5061637;28;20053;-63
2022/09/13 08:16:09;;;;;;;7.33;3.20;;;;;;;;;;5063742;28;20094;-63
2022/09/13 08:18:35;;;;;;;9.67;3.60;;;;;;;;;;5067168;28;20135;-64
2022/09/13 08:21:01;;;;;;;10.03;3.63;;;;;;;;;;5069097;28;20119;-63
2022/09/13 08:23:28;;;;;;;13.73;4.30;;;;;;;;;;5068504;28;20044;-63
2022/09/13 08:25:54;;;;;;;6.00;2.90;;;;;;;;;;5048937;28;20045;-64
2022/09/13 08:28:21;;;;;;;10.60;2.87;;;;;;;;;;5047990;28;20047;-64
2022/09/13 08:30:47;;;;;;;11.10;2.30;;;;;;;;;;5059943;28;20058;-64
2022/09/13 08:33:14;;;;;;;8.47;1.93;;;;;;;;;;5068526;28;20044;-64
2022/09/13 08:35:40;;;;;;;5.53;1.57;;;;;;;;;;5068884;28;20120;-64
2022/09/13 08:38:06;;;;;;;8.87;1.60;;;;;;;;;;5069048;28;20040;-64
2022/09/13 08:40:44;;;;;;;9.53;1.60;;;;;;;;;;5068068;28;20071;-64
2022/09/13 08:43:48;;;;;;;9.10;1.80;;;;;;;;;;5068293;28;20080;-64
2022/09/13 08:46:23;;;;;;;7.30;1.43;;;;;;;;;;5006308;28;20088;-63
2022/09/13 08:48:51;;;;;;;7.97;1.70;;;;;;;;;;5006746;28;20060;-64
2022/09/13 08:51:26;;;;;;;6.57;2.10;;;;;;;;;;5038679;28;20047;-64
2022/09/13 08:53:52;;;;;;;7.23;1.30;;;;;;;;;;5067172;28;20041;-64
2022/09/13 08:56:38;;;;;;;7.93;1.43;;;;;;;;;;5067265;28;20493;-64
2022/09/13 08:59:13;;;;;;;7.80;1.40;;;;;;;;;;5036827;28;20049;-63
2022/09/13 09:01:48;;;;;;;8.37;1.90;;;;;;;;;;5067319;28;20041;-64
2022/09/13 09:04:17;;;;;;;7.90;1.50;;;;;;;;;;5068495;28;20556;-63
2022/09/13 09:06:43;;;;;;;5.50;1.20;;;;;;;;;;5068391;28;20044;-63
2022/09/13 09:09:13;;;;;;;10.40;1.20;;;;;;;;;;5068105;28;20048;-63
2022/09/13 09:11:45;;;;;;;5.43;1.10;;;;;;;;;;5066881;28;20056;-63
2022/09/13 09:14:15;;;;;;;4.70;1.13;;;;;;;;;;5068306;28;20055;-63
2022/09/13 09:16:45;;;;;;;5.20;1.10;;;;;;;;;;5068414;28;20064;-63
2022/09/13 09:19:15;;;;;;;8.23;1.20;;;;;;;;;;5065569;28;20163;-63
2022/09/13 09:21:42;;;;;;;5.60;1.13;;;;;;;;;;5068410;28;20066;-63
2022/09/13 09:24:11;;;;;;;4.13;1.50;;;;;;;;;;5068108;28;20037;-63
2022/09/13 09:26:37;;;;;;;8.23;1.20;;;;;;;;;;5068159;28;20094;-63
2022/09/13 09:29:05;;;;;;;6.17;1.10;;;;;;;;;;5068539;28;20506;-63
2022/09/13 09:31:42;;;;;;;4.00;1.10;;;;;;;;;;5071238;28;20525;-62
2022/09/13 09:34:17;;;;;;;4.63;1.00;;;;;;;;;;5072356;28;20044;-62
2022/09/13 09:36:51;;;;;;;3.47;0.80;;;;;;;;;;5071942;28;20051;-62
2022/09/13 09:39:17;;;;;;;5.97;1.20;;;;;;;;;;5071442;28;22019;-62
2022/09/13 09:41:44;;;;;;;4.47;1.00;;;;;;;;;;5071366;28;20217;-62
2022/09/13 09:44:13;;;;;;;4.10;0.80;;;;;;;;;;5071776;28;20059;-62
2022/09/13 09:46:40;;;;;;;3.30;1.10;;;;;;;;;;5071664;28;20028;-62
2022/09/13 09:50:07;;;;;;;3.40;0.77;;;;;;;;;;5071498;28;20048;-60
2022/09/13 09:51:55;;;;;;;5.23;0.70;;;;;;;;;;5071621;28;20121;-60
2022/09/13 09:54:22;;;;;;;6.00;0.90;;;;;;;;;;5071635;28;20498;-60
2022/09/13 09:56:55;;;;;;;3.33;0.67;;;;;;;;;;5071614;28;20047;-60
2022/09/13 09:59:31;;;;;;;4.13;0.80;;;;;;;;;;5071323;28;20128;-60
2022/09/13 10:01:58;;;;;;;2.23;0.70;;;;;;;;;;5071716;28;20157;-60
2022/09/13 10:04:25;;;;;;;4.38;0.80;;;;;;;;;;5071104;28;20101;-60
2022/09/13 10:07:07;;;;;;;5.43;1.00;;;;;;;;;;5071473;28;20044;-60
2022/09/13 10:09:33;;;;;;;3.67;0.80;;;;;;;;;;5051335;28;20126;-60
2022/09/13 10:11:59;;;;;;;2.20;0.70;;;;;;;;;;5051285;28;20049;-60
2022/09/13 10:14:37;;;;;;;3.05;0.70;;;;;;;;;;5056544;28;20418;-60
2022/09/13 10:17:04;;;;;;;2.80;0.70;;;;;;;;;;5071155;28;20052;-60
2022/09/13 10:19:31;;;;;;;3.67;1.10;;;;;;;;;;5070381;28;20125;-60
2022/09/13 10:22:15;;;;;;;3.33;0.55;;;;;;;;;;5071036;28;20133;-61
2022/09/13 10:24:41;;;;;;;2.25;0.60;;;;;;;;;;5071615;28;20037;-61
2022/09/13 10:27:19;;;;;;;2.22;0.50;;;;;;;;;;5071539;28;20319;-61
2022/09/13 10:29:50;;;;;;;3.85;0.63;;;;;;;;;;5071293;28;20555;-62
2022/09/13 10:32:18;;;;;;;2.63;0.40;;;;;;;;;;5070899;28;20406;-61
2022/09/13 10:34:45;;;;;;;2.90;0.50;;;;;;;;;;5071125;28;20045;-61
2022/09/13 10:37:20;;;;;;;3.47;0.50;;;;;;;;;;5060357;28;20045;-61
2022/09/13 10:39:52;;;;;;;5.28;0.88;;;;;;;;;;5069068;28;20045;-61
2022/09/13 10:42:20;;;;;;;3.13;0.75;;;;;;;;;;5070200;28;20044;-61
2022/09/13 10:44:52;;;;;;;4.47;0.75;;;;;;;;;;5070503;28;20507;-61
2022/09/13 10:47:21;;;;;;;3.38;0.70;;;;;;;;;;5070971;28;20041;-61
2022/09/13 10:49:54;;;;;;;6.20;1.05;;;;;;;;;;5070847;28;20143;-61
2022/09/13 10:52:30;;;;;;;2.83;0.85;;;;;;;;;;5070741;28;20040;-61
2022/09/13 10:54:56;;;;;;;2.42;0.70;;;;;;;;;;5070839;28;20053;-61
2022/09/13 10:57:33;;;;;;;4.43;0.70;;;;;;;;;;5070488;28;20124;-61
2022/09/13 10:59:59;;;;;;;2.10;0.68;;;;;;;;;;5071047;28;20041;-61
2022/09/13 11:02:31;;;;;;;4.32;0.75;;;;;;;;;;5070671;28;20538;-61
2022/09/13 11:05:17;;;;;;;1.85;0.55;;;;;;;;;;5070828;28;20117;-60
2022/09/13 11:08:16;;;;;;;3.30;1.67;;;;;;;;;;5070489;28;20040;-61
2022/09/13 11:11:00;;;;;;;4.80;0.80;;;;;;;;;;5035723;28;20079;-61
2022/09/13 11:13:58;;;;;;;3.75;0.85;;;;;;;;;;5070127;28;20047;-61
2022/09/13 11:16:42;;;;;;;4.18;0.85;;;;;;;;;;5047016;28;20040;-61
2022/09/13 11:19:24;;;;;;;5.03;1.00;;;;;;;;;;5070569;28;20080;-61
2022/09/13 11:21:56;;;;;;;2.25;0.68;;;;;;;;;;5070092;28;20048;-62
2022/09/13 11:24:42;;;;;;;3.90;1.10;;;;;;;;;;5070527;28;20056;-62
2022/09/13 11:27:20;;;;;;;2.75;0.50;;;;;;;;;;5070545;28;20044;-62
2022/09/13 11:29:54;;;;;;;2.70;0.60;;;;;;;;;;5069886;28;20457;-62
2022/09/13 11:32:35;;;;;;;4.63;0.80;;;;;;;;;;5070333;28;20494;-61
2022/09/13 11:35:07;;;;;;;3.05;0.75;;;;;;;;;;5069026;28;20044;-61
2022/09/13 11:37:46;;;;;;;6.03;0.57;;;;;;;;;;5069620;28;20071;-61
2022/09/13 11:40:22;;;;;;;3.10;0.60;;;;;;;;;;5069989;28;20414;-61
2022/09/13 11:42:51;;;;;;;4.43;0.88;;;;;;;;;;5068597;28;20495;-61
2022/09/13 11:45:20;;;;;;;4.18;0.77;;;;;;;;;;5069423;28;20482;-61
2022/09/13 11:48:05;;;;;;;3.42;0.60;;;;;;;;;;5069357;28;20143;-61
2022/09/13 11:50:35;;;;;;;2.00;0.82;;;;;;;;;;5069413;28;20067;-61
2022/09/13 11:53:08;;;;;;;3.35;0.75;;;;;;;;;;5067352;28;20056;-61
2022/09/13 11:55:51;;;;;;;5.35;1.15;;;;;;;;;;5069168;28;20045;-61
2022/09/13 11:58:21;;;;;;;3.90;0.68;;;;;;;;;;5068423;28;20044;-60
2022/09/13 12:00:52;;;;;;;2.40;0.60;;;;;;;;;;5068091;28;20060;-61
2022/09/13 12:03:47;;;;;;;4.93;1.13;;;;;;;;;;5069109;28;20048;-61
2022/09/13 12:06:18;;;;;;;5.75;0.80;;;;;;;;;;5058502;28;20064;-61
2022/09/13 12:08:46;;;;;;;4.00;0.73;;;;;;;;;;5066558;28;20053;-61
2022/09/13 12:11:12;;;;;;;1.85;0.57;;;;;;;;;;5067051;28;20048;-61
2022/09/13 12:13:42;;;;;;;2.85;0.65;;;;;;;;;;5067512;28;20051;-61
2022/09/13 12:16:09;;;;;;;3.75;0.90;;;;;;;;;;5067195;28;21508;-61
2022/09/13 12:18:41;;;;;;;6.18;1.13;;;;;;;;;;5067345;28;20041;-61
2022/09/13 12:21:10;;;;;;;2.42;0.70;;;;;;;;;;5068984;28;20417;-61
2022/09/13 12:23:38;;;;;;;5.82;0.77;;;;;;;;;;5068526;28;20532;-61
2022/09/13 12:26:07;;;;;;;5.72;1.05;;;;;;;;;;5068679;28;20651;-61
2022/09/13 12:28:45;;;;;;;4.40;0.90;;;;;;;;;;5068985;28;20056;-61
2022/09/13 12:31:18;;;;;;;4.45;1.02;;;;;;;;;;5068834;28;20051;-61
2022/09/13 12:33:45;;;;;;;3.58;1.00;;;;;;;;;;5066715;28;20393;-61
2022/09/13 12:36:29;;;;;;;4.13;1.10;;;;;;;;;;5068732;28;20040;-62
2022/09/13 12:39:14;;;;;;;3.38;1.23;;;;;;;;;;5068496;28;20052;-61
2022/09/13 12:41:59;;;;;;;4.60;1.00;;;;;;;;;;5067953;28;20048;-61
2022/09/13 12:44:24;;;;;;;6.32;1.17;;;;;;;;;;5068287;28;20056;-61
2022/09/13 12:47:09;;;;;;;2.75;0.50;;;;;;;;;;5068536;28;20063;-61
2022/09/13 12:49:41;;;;;;;4.88;1.00;;;;;;;;;;5068425;28;20079;-61
2022/09/13 12:52:27;;;;;;;3.05;0.60;;;;;;;;;;5068237;28;20418;-61
2022/09/13 12:55:13;;;;;;;3.17;0.70;;;;;;;;;;5068021;28;20141;-61
2022/09/13 12:57:50;;;;;;;3.97;0.85;;;;;;;;;;5068501;28;20056;-61
2022/09/13 13:00:16;;;;;;;3.80;0.80;;;;;;;;;;5068349;28;20055;-61
2022/09/13 13:02:51;;;;;;;3.55;0.82;;;;;;;;;;5067825;28;20052;-61
2022/09/13 13:05:26;;;;;;;2.90;0.70;;;;;;;;;;5068327;28;20090;-61
2022/09/13 13:07:57;;;;;;;2.90;0.82;;;;;;;;;;5062069;28;20499;-61
2022/09/13 13:10:34;;;;;;;4.40;0.95;;;;;;;;;;5047665;28;20118;-61
2022/09/13 13:13:20;;;;;;;3.08;0.80;;;;;;;;;;5048062;28;20177;-61
2022/09/13 13:15:46;;;;;;;4.68;1.05;;;;;;;;;;5048069;28;20037;-61
2022/09/13 13:18:31;;;;;;;3.17;0.70;;;;;;;;;;5048070;28;20052;-61
2022/09/13 13:20:57;;;;;;;2.60;0.77;;;;;;;;;;5047635;28;20049;-61
2022/09/13 13:23:27;;;;;;;2.90;0.88;;;;;;;;;;5048057;28;20418;-61
2022/09/13 13:25:59;;;;;;;3.70;0.75;;;;;;;;;;5048382;28;20049;-61
2022/09/13 13:28:40;;;;;;;5.82;0.77;;;;;;;;;;5048228;28;20442;-61
2022/09/13 13:31:07;;;;;;;6.05;1.08;;;;;;;;;;5047456;28;20061;-61
2022/09/13 13:33:45;;;;;;;3.40;1.02;;;;;;;;;;5048046;28;20491;-61
2022/09/13 13:36:21;;;;;;;3.15;0.55;;;;;;;;;;5048451;28;20423;-61
2022/09/13 13:38:48;;;;;;;5.28;1.02;;;;;;;;;;5048245;28;20128;-61
2022/09/13 13:41:32;;;;;;;4.90;0.80;;;;;;;;;;5047448;28;20059;-61
2022/09/13 13:43:59;;;;;;;2.97;0.90;;;;;;;;;;5048036;28;20044;-61
2022/09/13 13:46:31;;;;;;;4.65;0.85;;;;;;;;;;5047686;28;20052;-62
2022/09/13 13:49:16;;;;;;;4.88;1.10;;;;;;;;;;5047814;28;20080;-61
2022/09/13 13:51:43;;;;;;;3.53;0.77;;;;;;;;;;5047821;28;20049;-61
2022/09/13 13:54:29;;;;;;;3.13;0.90;;;;;;;;;;5047538;28;20103;-61
2022/09/13 13:56:55;;;;;;;3.50;0.95;;;;;;;;;;5047887;28;20107;-61
2022/09/13 13:59:21;;;;;;;7.05;1.00;;;;;;;;;;5048000;28;20052;-61
2022/09/13 14:01:50;;;;;;;3.60;1.00;;;;;;;;;;5047606;28;20099;-61
2022/09/13 14:04:40;;;;;;;5.78;1.00;;;;;;;;;;5047740;28;20052;-61
2022/09/13 14:07:33;;;;;;;3.20;0.70;;;;;;;;;;5047980;28;20056;-61
2022/09/13 14:10:09;;;;;;;5.65;1.02;;;;;;;;;;5047501;28;20422;-61
2022/09/13 14:12:45;;;;;;;5.20;1.13;;;;;;;;;;5047264;28;20049;-61
2022/09/13 14:15:21;;;;;;;4.78;0.95;;;;;;;;;;5048110;28;20045;-61
2022/09/13 14:18:05;;;;;;;6.30;1.15;;;;;;;;;;5051242;28;20103;-61
2022/09/13 14:20:31;;;;;;;1.90;0.65;;;;;;;;;;5051109;28;20049;-61
2022/09/13 14:23:17;;;;;;;3.58;1.08;;;;;;;;;;5051130;28;20056;-61
2022/09/13 14:25:43;;;;;;;3.08;0.70;;;;;;;;;;5050532;28;20457;-61
2022/09/13 14:28:13;;;;;;;3.65;0.85;;;;;;;;;;5061030;28;20076;-61
2022/09/13 14:30:39;;;;;;;2.78;0.88;;;;;;;;;;5070806;28;20123;-61
2022/09/13 14:33:07;;;;;;;5.32;1.58;;;;;;;;;;5071105;28;20502;-60
2022/09/13 14:35:37;;;;;;;4.78;0.80;;;;;;;;;;5070482;28;20113;-61
2022/09/13 14:38:10;;;;;;;4.88;0.70;;;;;;;;;;5071239;28;20041;-61
2022/09/13 14:40:37;;;;;;;4.55;0.80;;;;;;;;;;5070612;28;20052;-60
2022/09/13 14:43:14;;;;;;;3.67;0.77;;;;;;;;;;5071047;28;20048;-61
2022/09/13 14:45:40;;;;;;;3.65;0.70;;;;;;;;;;5070390;28;20048;-61
2022/09/13 14:48:14;;;;;;;6.82;1.45;;;;;;;;;;5070375;28;20416;-61